Stations météo

réclame
Mon MeteoGroup
Ell, Pays-Bas (6377): Température de l'air & dewpoint: 12.10.2017 16:00:00 - 18.10.2017 16:00:00 (CEST)Ell, Pays-Bas (6377): Température de l'air 5cm: 12.10.2017 16:00:00 - 18.10.2017 16:00:00 (CEST)Ell, Pays-Bas (6377): Vitesse du vent & gusts: 12.10.2017 16:00:00 - 18.10.2017 16:00:00 (CEST)Ell, Pays-Bas (6377): Direction du vent: 12.10.2017 16:00:00 - 18.10.2017 16:00:00 (CEST)Ell, Pays-Bas (6377): visibility: 12.10.2017 16:00:00 - 18.10.2017 16:00:00 (CEST)Ell, Pays-Bas (6377): Quantités de précipitations: 12.10.2017 16:00:00 - 18.10.2017 16:00:00 (CEST)
Date & Time tt [°C] td [°C] tt 5cm [°C] ff [km/h] ff [knt] fx [km/h] fx [knt] dd vv [km] rr [mm]
18.10.2017 16:00:00 21,5 13,7 22,2 8 4 - - SW 29 -
18.10.2017 15:00:00 20,7 12,8 21,9 7 4 14 8 SSW 22 0,0
18.10.2017 14:00:00 18,9 13,6 20,3 7 4 14 8 S 14 0,0
18.10.2017 13:00:00 16,4 13,0 18,7 7 4 11 6 S 2,3 0,0
18.10.2017 12:00:00 13,5 12,6 14,5 4 2 7 4 SSE 5 0,0
18.10.2017 11:00:00 11,6 11,6 12,7 4 2 7 4 SE 0,1 0,0
18.10.2017 10:00:00 11,4 11,4 11,9 4 2 11 6 SE 0,1 0,0
18.10.2017 09:00:00 11,3 11,3 11,6 7 4 11 6 E 0,1 0,0
18.10.2017 08:00:00 12,0 12,0 12,0 7 4 11 6 E 0,1 0,0
18.10.2017 07:00:00 11,9 11,9 11,9 7 4 14 8 NE 0,1 0,0
18.10.2017 06:00:00 11,7 11,7 11,5 11 6 14 8 NE 0,2 0,0
18.10.2017 05:00:00 11,0 10,9 9,9 7 4 14 8 N 2,8 0,0
18.10.2017 04:00:00 10,6 10,6 9,3 7 4 11 6 NNE 0,9 0,0
18.10.2017 03:00:00 10,2 10,2 7,3 4 2 7 4 E 0,3 0,0
18.10.2017 02:00:00 10,9 10,9 8,9 4 2 4 2 ESE 2,8 0,0
18.10.2017 01:00:00 12,0 11,2 10,4 4 2 11 6 E 8 0,0
18.10.2017 00:00:00 13,0 12,1 12,6 4 2 7 4 ENE 9 0,0
17.10.2017 23:00:00 12,8 11,9 10,3 7 4 7 4 NNW 10 0,0
17.10.2017 22:00:00 12,5 11,4 10,7 7 4 7 4 E 9 0,0
17.10.2017 21:00:00 12,1 11,6 9,9 4 2 7 4 NE 9 0,0
17.10.2017 20:00:00 12,4 11,8 10,1 4 2 7 4 NNE 9 0,0
17.10.2017 19:00:00 14,4 12,7 11,7 4 2 4 2 NE 11 0,0
17.10.2017 18:00:00 15,8 13,0 14,3 4 2 7 4 NE 11 0,0
17.10.2017 17:00:00 17,4 13,2 17,4 4 2 4 2 ENE 8 0,0
17.10.2017 16:00:00 17,9 12,4 18,3 4 2 4 2 ENE 12 0,0
17.10.2017 15:00:00 17,7 12,4 18,8 4 2 11 6 ESE 13 0,0
17.10.2017 14:00:00 17,3 11,8 17,9 4 2 14 8 NW 15 0,0
17.10.2017 13:00:00 16,9 11,8 17,0 11 6 18 10 W 13 0,0
17.10.2017 12:00:00 16,3 14,2 16,6 7 4 11 6 SW 10 0,0
17.10.2017 11:00:00 15,6 14,0 15,7 7 4 11 6 SSW 10 0,0
17.10.2017 10:00:00 14,8 13,8 14,2 7 4 7 4 SSW 9 0,0
17.10.2017 09:00:00 14,5 13,6 14,0 4 2 11 6 SSW 9 0,0
17.10.2017 08:00:00 14,1 13,1 13,3 7 4 7 4 SSW 10 0,0
17.10.2017 07:00:00 14,0 13,1 13,3 7 4 11 6 SSW 10 0,0
17.10.2017 06:00:00 13,6 12,5 12,2 7 4 11 6 WSW 11 0,0
17.10.2017 05:00:00 13,7 12,5 12,3 7 4 14 8 SW 14 0,0
17.10.2017 04:00:00 14,6 12,3 12,7 7 4 11 6 WSW 19 0,0
17.10.2017 03:00:00 15,2 12,4 12,0 7 4 11 6 SW 21 0,0
17.10.2017 02:00:00 15,3 12,3 12,3 7 4 14 8 SSW 23 0,0
17.10.2017 01:00:00 15,5 12,5 13,6 11 6 18 10 S 21 0,0
17.10.2017 00:00:00 14,2 12,0 10,8 7 4 11 6 S 16 0,0
16.10.2017 23:00:00 15,2 12,2 11,9 7 4 11 6 SSE 16 0,0
16.10.2017 22:00:00 16,4 12,7 13,8 11 6 29 16 S 21 0,0
16.10.2017 21:00:00 19,2 13,5 17,1 18 10 25 14 S 27 0,0
16.10.2017 20:00:00 17,7 13,9 14,8 11 6 14 8 S 18 0,0
16.10.2017 19:00:00 19,4 14,7 15,7 7 4 14 8 SSE 30 0,0
16.10.2017 18:00:00 21,9 15,9 19,9 11 6 18 10 SE 21 0,0
16.10.2017 17:00:00 24,0 16,8 23,9 7 4 25 14 SE 17 0,0
16.10.2017 16:00:00 24,6 16,0 24,5 14 8 25 14 SSE 21 0,0
16.10.2017 15:00:00 24,2 15,7 24,7 14 8 25 14 SSE 19 0,0
16.10.2017 14:00:00 23,9 16,6 25,2 11 6 25 14 SE 11 0,0
16.10.2017 13:00:00 24,0 15,9 24,4 11 6 22 12 SSW 25 0,0
16.10.2017 12:00:00 22,7 15,9 22,6 14 8 25 14 SSW 18 0,0
16.10.2017 11:00:00 20,8 15,3 20,6 14 8 25 14 SSW 29 0,0
16.10.2017 10:00:00 18,8 14,7 18,0 14 8 22 12 SSW 25 0,0
16.10.2017 09:00:00 17,0 13,8 15,6 14 8 22 12 SSW 24 0,0
16.10.2017 08:00:00 16,5 13,5 15,4 22 12 25 14 SSW 21 0,0
16.10.2017 07:00:00 15,2 13,1 13,6 7 4 14 8 SSE 19 0,0
16.10.2017 06:00:00 13,9 12,4 12,6 7 4 11 6 SSE 17 0,0
16.10.2017 05:00:00 13,6 11,9 10,8 7 4 11 6 SSE 17 0,0
16.10.2017 04:00:00 13,2 11,6 10,1 11 6 11 6 S 15 0,0
16.10.2017 03:00:00 13,0 11,7 10,2 7 4 11 6 SSE 12 0,0
16.10.2017 02:00:00 12,9 11,7 9,8 7 4 11 6 S 13 0,0
16.10.2017 01:00:00 12,6 11,4 10,0 7 4 11 6 SSE 13 0,0
16.10.2017 00:00:00 13,1 11,3 10,1 11 6 14 8 S 15 0,0
15.10.2017 23:00:00 13,6 11,8 10,5 7 4 11 6 SSE 15 0,0
15.10.2017 22:00:00 14,8 11,9 10,9 7 4 11 6 SSE 18 0,0
15.10.2017 21:00:00 16,5 12,3 11,5 7 4 14 8 S 22 0,0
15.10.2017 20:00:00 16,4 11,9 13,0 11 6 18 10 S 15 0,0
15.10.2017 19:00:00 17,7 13,2 13,8 4 2 11 6 SSE 11 0,0
15.10.2017 18:00:00 21,6 13,6 19,5 7 4 11 6 SSE 5 0,0
15.10.2017 17:00:00 22,8 14,6 22,7 11 6 18 10 SSE 6 0,0
15.10.2017 16:00:00 23,9 13,6 24,1 11 6 22 12 S 9 0,0
15.10.2017 15:00:00 23,6 12,6 23,9 18 10 22 12 S 21 0,0
15.10.2017 14:00:00 22,7 13,6 23,3 14 8 25 14 S 9 0,0
15.10.2017 13:00:00 20,8 13,7 21,2 18 10 25 14 S 15 0,0
15.10.2017 12:00:00 19,0 13,9 19,4 11 6 14 8 SSE 19 0,0
15.10.2017 11:00:00 16,0 13,3 16,7 7 4 14 8 SE 16 0,0
15.10.2017 10:00:00 13,5 12,1 13,2 7 4 11 6 SE 14 0,0
15.10.2017 09:00:00 10,6 10,5 7,9 7 4 7 4 ESE 4,7 0,0
15.10.2017 08:00:00 8,3 8,3 4,7 4 2 7 4 SE 0,2 0,0
15.10.2017 07:00:00 7,1 7,1 5,6 4 2 4 2 ESE 0,2 0,0
15.10.2017 06:00:00 10,1 10,1 6,6 4 2 7 4 NE 0,1 0,0
15.10.2017 05:00:00 9,5 9,5 6,2 4 2 4 2 ESE 0,1 0,0
15.10.2017 04:00:00 10,6 10,6 7,5 4 2 7 4 E 0,2 0,0
15.10.2017 03:00:00 9,7 9,7 7,0 7 4 7 4 SE 0,1 0,0
15.10.2017 02:00:00 9,7 9,7 7,4 4 2 7 4 SSE 0,1 0,0
15.10.2017 01:00:00 10,9 10,9 8,1 4 2 7 4 ESE 0,4 0,0
15.10.2017 00:00:00 11,1 10,9 8,4 0 0 4 2 N 0,3 0,0
14.10.2017 23:00:00 11,6 11,5 8,8 4 2 4 2 E 0,5 0,0
14.10.2017 22:00:00 12,6 12,6 10,0 4 2 7 4 NNW 2,7 0,0
14.10.2017 21:00:00 12,9 12,4 11,1 7 4 7 4 SSE 8 0,0
14.10.2017 20:00:00 14,4 13,6 11,6 0 0 7 4 N 8 0,0
14.10.2017 19:00:00 17,2 14,3 14,3 7 4 11 6 S 25 0,0
14.10.2017 18:00:00 20,1 14,3 19,1 7 4 18 10 SW 25 0,0
14.10.2017 17:00:00 21,6 14,8 21,7 14 8 22 12 SSW 24 0,0
14.10.2017 16:00:00 22,2 14,8 22,8 14 8 22 12 SSW 38 0,0
14.10.2017 15:00:00 22,1 15,3 23,1 14 8 25 14 SW 31 0,0
14.10.2017 14:00:00 21,5 14,7 22,5 14 8 25 14 SW 25 0,0
14.10.2017 13:00:00 20,8 14,8 21,4 18 10 25 14 SSW 28 0,0
14.10.2017 12:00:00 19,4 14,5 20,1 11 6 18 10 SSW 23 0,0
14.10.2017 11:00:00 17,6 14,6 18,0 11 6 18 10 S 18 0,0
14.10.2017 10:00:00 15,5 13,7 15,1 11 6 14 8 S 13 0,0
14.10.2017 09:00:00 12,1 12,0 11,2 4 2 7 4 S 4,1 0,0
14.10.2017 08:00:00 10,7 10,7 8,5 4 2 11 6 S 0,6 0,0
14.10.2017 07:00:00 11,3 11,2 9,3 7 4 7 4 S 4,0 0,0
14.10.2017 06:00:00 12,1 12,0 9,8 7 4 11 6 S 8 0,0
14.10.2017 05:00:00 12,9 12,4 11,3 7 4 11 6 S 11 0,0
14.10.2017 04:00:00 13,1 12,5 12,0 11 6 14 8 S 11 0,0
14.10.2017 03:00:00 13,3 12,7 10,8 11 6 14 8 SSW 14 0,0
14.10.2017 02:00:00 12,8 12,5 10,4 7 4 11 6 S 11 0,0
14.10.2017 01:00:00 12,6 12,0 10,6 7 4 11 6 S 15 0,0
14.10.2017 00:00:00 12,9 12,5 10,3 7 4 11 6 S 13 0,0
13.10.2017 23:00:00 12,8 12,0 10,7 7 4 11 6 S 13 0,0
13.10.2017 22:00:00 13,8 12,4 12,0 7 4 11 6 S 23 0,0
13.10.2017 21:00:00 14,4 12,6 13,1 11 6 18 10 S 22 0,0
13.10.2017 20:00:00 17,0 13,8 16,0 11 6 18 10 SSW 29 0,0
13.10.2017 19:00:00 17,4 14,1 16,8 7 4 18 10 SSW 41 0,0
13.10.2017 18:00:00 18,4 13,9 17,8 14 8 22 12 SW 33 0,0
13.10.2017 17:00:00 19,3 13,8 18,6 11 6 25 14 SW 32 0,0
13.10.2017 16:00:00 19,3 14,1 19,4 14 8 32 18 SW 26 0,0
13.10.2017 15:00:00 19,5 13,8 20,1 22 12 32 18 SW 22 0,0
13.10.2017 14:00:00 18,6 13,5 18,4 22 12 40 21 WSW 27 0,0
13.10.2017 13:00:00 19,4 15,5 19,3 18 10 29 16 SSW 19 0,0
13.10.2017 12:00:00 17,9 14,5 17,7 18 10 29 16 SW 17 0,0
13.10.2017 11:00:00 16,5 14,7 16,7 14 8 29 16 SW 11 0,0
13.10.2017 10:00:00 15,4 14,5 14,9 11 6 18 10 SW 10 0,0
13.10.2017 09:00:00 13,2 12,7 12,5 11 6 14 8 S 10 0,0
13.10.2017 08:00:00 12,5 12,1 12,0 4 2 11 6 SSE 10 0,0
13.10.2017 07:00:00 11,3 10,9 10,8 7 4 11 6 S 10 0,0
13.10.2017 06:00:00 10,6 10,4 10,3 4 2 7 4 SSE 9 0,0
13.10.2017 05:00:00 9,7 9,5 8,8 4 2 7 4 ENE 12 0,0
13.10.2017 04:00:00 9,7 8,8 8,1 7 4 11 6 S 15 0,0
13.10.2017 03:00:00 9,3 8,6 7,3 4 2 11 6 S 15 0,0
13.10.2017 02:00:00 9,8 8,4 7,4 7 4 14 8 SSW 17 0,0
13.10.2017 01:00:00 9,9 8,4 7,7 7 4 11 6 SSW 17 0,0
13.10.2017 00:00:00 9,9 8,5 7,7 7 4 14 8 SSW 17 0,0
12.10.2017 23:00:00 10,4 8,5 8,4 11 6 14 8 SSW 17 0,0
12.10.2017 22:00:00 10,4 8,2 8,1 11 6 14 8 SSW 20 0,0
12.10.2017 21:00:00 10,4 8,1 8,3 11 6 14 8 S 20 0,0
12.10.2017 20:00:00 10,8 9,0 8,8 7 4 7 4 SSW 16 0,0
12.10.2017 19:00:00 12,8 9,2 10,2 7 4 11 6 S 24 0,0
12.10.2017 18:00:00 15,0 9,4 14,6 7 4 18 10 WSW 26 0,0
12.10.2017 17:00:00 16,2 8,8 15,8 14 8 29 16 W 29 0,0
12.10.2017 16:00:00 15,6 8,3 15,5 22 12 40 21 W 29 0,0

tt = Température de l'air
td = dewpoint
tt 5cm = Température de l'air 5cm
ff = Vitesse du vent
fx = gusts
dd = Direction du vent
vv = visibility
rr = Quantités de précipitations

stations d'obs. à proximité